createdAt,value
2023-03-11T00:00:27.912Z,12.12
2023-03-11T00:03:30.766Z,12.17
2023-03-11T00:06:23.860Z,12.22
2023-03-11T00:08:59.307Z,12.26
2023-03-11T00:11:52.239Z,12.33
2023-03-11T00:14:45.087Z,12.35
2023-03-11T00:17:38.039Z,12.32
2023-03-11T00:20:33.004Z,12.25
2023-03-11T00:23:18.823Z,12.18
2023-03-11T00:25:54.917Z,12.11
2023-03-11T00:28:40.602Z,12.08
2023-03-11T00:31:26.626Z,12.08
2023-03-11T00:34:03.514Z,12.07
2023-03-11T00:36:39.261Z,12.07
2023-03-11T00:39:32.104Z,12.00
2023-03-11T00:42:05.132Z,11.93
2023-03-11T00:44:48.088Z,11.89
2023-03-11T00:47:31.482Z,11.84
2023-03-11T00:50:19.192Z,11.78
2023-03-11T00:53:15.679Z,11.72
2023-03-11T00:55:58.658Z,11.72
2023-03-11T00:58:42.305Z,11.74
2023-03-11T01:01:35.212Z,11.71
2023-03-11T01:04:28.335Z,11.70
2023-03-11T01:07:02.967Z,11.69
2023-03-11T01:09:47.185Z,11.66
2023-03-11T01:12:40.107Z,11.63
2023-03-11T01:15:35.438Z,11.61
2023-03-11T01:18:28.791Z,11.57
2023-03-11T01:21:14.433Z,11.57
2023-03-11T01:24:00.360Z,11.60
2023-03-11T01:26:47.773Z,11.61
2023-03-11T01:29:39.386Z,11.56
2023-03-11T01:32:15.557Z,11.52
2023-03-11T01:35:09.701Z,11.49
2023-03-11T01:37:47.558Z,11.50
2023-03-11T01:40:26.588Z,11.50
2023-03-11T01:43:05.777Z,11.45
2023-03-11T01:46:17.158Z,11.44
2023-03-11T01:49:15.069Z,11.40
2023-03-11T01:51:52.191Z,11.35
2023-03-11T01:54:39.032Z,11.39
2023-03-11T01:57:17.808Z,11.62
2023-03-11T02:00:15.937Z,11.86
2023-03-11T02:02:55.627Z,12.32
2023-03-11T02:05:31.910Z,12.76
2023-03-11T02:08:25.577Z,13.14
2023-03-11T02:11:21.990Z,13.47
2023-03-11T02:14:15.195Z,13.35
2023-03-11T02:17:08.297Z,13.09
2023-03-11T02:20:14.199Z,12.92
2023-03-11T02:22:57.234Z,12.79
2023-03-11T02:25:58.804Z,12.65
2023-03-11T02:28:54.493Z,12.57
2023-03-11T02:31:49.338Z,13.18
2023-03-11T02:34:28.318Z,13.54
2023-03-11T02:37:02.450Z,13.41
2023-03-11T02:39:37.217Z,13.26
2023-03-11T02:42:16.743Z,13.15
2023-03-11T02:45:07.636Z,13.08
2023-03-11T02:47:51.545Z,13.04
2023-03-11T02:50:27.573Z,13.03
2023-03-11T02:53:03.709Z,12.98
2023-03-11T02:55:39.726Z,12.92
2023-03-11T02:58:28.649Z,12.87
2023-03-11T03:01:12.763Z,12.82
2023-03-11T03:03:48.906Z,12.73
2023-03-11T03:06:41.979Z,12.75
2023-03-11T03:09:36.387Z,12.75
2023-03-11T03:12:23.264Z,12.76
2023-03-11T03:14:59.474Z,12.79
2023-03-11T03:17:35.614Z,12.84
2023-03-11T03:20:18.195Z,12.87
2023-03-11T03:22:55.822Z,12.88
2023-03-11T03:25:49.064Z,12.85
2023-03-11T03:28:33.356Z,12.83
2023-03-11T03:31:26.442Z,12.78
2023-03-11T03:34:08.835Z,12.69
2023-03-11T03:37:01.739Z,12.66
2023-03-11T03:39:40.399Z,12.64
2023-03-11T03:42:16.595Z,12.59
2023-03-11T03:44:53.814Z,12.56
2023-03-11T03:47:37.788Z,12.55
2023-03-11T03:50:14.357Z,12.54
2023-03-11T03:53:03.058Z,12.48
2023-03-11T03:55:55.932Z,12.39
2023-03-11T03:58:32.009Z,12.30
2023-03-11T04:01:10.119Z,12.56
2023-03-11T04:03:43.645Z,13.01
2023-03-11T04:06:22.280Z,13.43
2023-03-11T04:09:05.263Z,13.71
2023-03-11T04:11:45.511Z,13.84
2023-03-11T04:14:28.367Z,13.98
2023-03-11T04:17:13.809Z,13.84
2023-03-11T04:20:09.222Z,13.41
2023-03-11T04:23:02.015Z,13.04
2023-03-11T04:25:46.707Z,12.68
2023-03-11T04:28:24.499Z,12.35
2023-03-11T04:31:11.930Z,12.02
2023-03-11T04:34:04.797Z,11.69
2023-03-11T04:36:37.769Z,11.59
2023-03-11T04:39:30.293Z,11.53
2023-03-11T04:42:22.840Z,11.45
2023-03-11T04:45:00.916Z,11.32
2023-03-11T04:47:38.694Z,11.15
2023-03-11T04:50:22.293Z,11.04
2023-03-11T04:53:06.804Z,10.95
2023-03-11T04:55:45.032Z,10.89
2023-03-11T04:58:25.960Z,10.80
2023-03-11T05:00:58.603Z,10.69
2023-03-11T05:03:42.269Z,10.63
2023-03-11T05:06:35.231Z,10.58
2023-03-11T05:09:23.186Z,10.50
2023-03-11T05:11:59.365Z,10.44
2023-03-11T05:14:34.133Z,10.38
2023-03-11T05:17:20.076Z,10.35
2023-03-11T05:20:06.373Z,10.30
2023-03-11T05:22:43.875Z,10.38
2023-03-11T05:25:27.842Z,10.53
2023-03-11T05:28:13.622Z,10.60
2023-03-11T05:30:55.919Z,10.62
2023-03-11T05:33:49.621Z,10.56
2023-03-11T05:36:31.904Z,10.49
2023-03-11T05:39:24.836Z,10.46
2023-03-11T05:42:20.993Z,10.45
2023-03-11T05:45:03.311Z,10.44
2023-03-11T05:47:56.223Z,10.40
2023-03-11T05:50:49.446Z,10.40
2023-03-11T05:53:43.625Z,10.37
2023-03-11T05:56:36.421Z,10.33
2023-03-11T05:59:28.146Z,10.29
2023-03-11T06:02:06.289Z,10.29
2023-03-11T06:04:46.033Z,10.29
2023-03-11T06:07:39.379Z,10.28
2023-03-11T06:10:32.134Z,10.26
2023-03-11T06:13:12.397Z,10.28
2023-03-11T06:16:01.765Z,10.30
2023-03-11T06:18:46.037Z,10.33
2023-03-11T06:21:29.460Z,10.33
2023-03-11T06:24:06.204Z,10.35
2023-03-11T06:26:54.191Z,10.33
2023-03-11T06:29:38.313Z,10.30
2023-03-11T06:32:31.239Z,10.28
2023-03-11T06:35:11.434Z,10.28
2023-03-11T06:38:04.222Z,10.28
2023-03-11T06:41:00.093Z,10.28
2023-03-11T06:43:53.108Z,10.27
2023-03-11T06:46:36.179Z,10.22
2023-03-11T06:49:28.954Z,10.16
2023-03-11T06:52:11.931Z,10.23
2023-03-11T06:54:51.926Z,10.48
2023-03-11T06:57:32.229Z,10.74
2023-03-11T07:00:25.215Z,11.40
2023-03-11T07:03:05.593Z,11.59
2023-03-11T07:05:54.930Z,10.93
2023-03-11T07:08:31.208Z,10.24
2023-03-11T07:11:25.761Z,9.64
2023-03-11T07:14:05.125Z,9.23
2023-03-11T07:16:42.521Z,8.91
2023-03-11T07:19:35.425Z,8.96
2023-03-11T07:22:19.082Z,9.94
2023-03-11T07:25:04.209Z,10.97
2023-03-11T07:27:57.425Z,11.66
2023-03-11T07:30:52.434Z,12.05
2023-03-11T07:33:28.842Z,11.77
2023-03-11T07:36:09.018Z,10.87
2023-03-11T07:38:55.950Z,10.04
2023-03-11T07:41:48.774Z,9.40
2023-03-11T07:44:21.659Z,9.02
2023-03-11T07:46:54.540Z,8.97
2023-03-11T07:49:37.077Z,9.89
2023-03-11T07:52:20.202Z,10.88
2023-03-11T07:54:56.236Z,11.51
2023-03-11T07:57:33.854Z,11.66
2023-03-11T08:00:16.108Z,10.86
2023-03-11T08:02:52.118Z,9.98
2023-03-11T08:05:43.970Z,9.27
2023-03-11T08:08:26.906Z,9.01
2023-03-11T08:11:13.885Z,9.65
2023-03-11T08:14:07.278Z,10.45
2023-03-11T08:16:50.003Z,10.96
2023-03-11T08:19:32.912Z,11.32
2023-03-11T08:22:08.209Z,11.65
2023-03-11T08:25:01.062Z,11.52
2023-03-11T08:27:54.279Z,10.50
2023-03-11T08:30:47.405Z,9.56
2023-03-11T08:33:29.371Z,8.89
2023-03-11T08:36:22.808Z,8.84
2023-03-11T08:39:05.470Z,9.79
2023-03-11T08:41:59.899Z,10.62
2023-03-11T08:44:53.130Z,11.07
2023-03-11T08:47:25.908Z,11.19
2023-03-11T08:50:21.509Z,11.20
2023-03-11T08:53:00.604Z,11.10
2023-03-11T08:55:43.558Z,10.32
2023-03-11T08:58:37.026Z,9.07
2023-03-11T09:01:24.309Z,8.18
2023-03-11T09:03:57.538Z,8.05
2023-03-11T09:06:43.270Z,8.76
2023-03-11T09:09:38.220Z,9.52
2023-03-11T09:12:31.223Z,9.95
2023-03-11T09:15:11.385Z,10.17
2023-03-11T09:18:04.749Z,10.29
2023-03-11T09:20:40.786Z,10.48
2023-03-11T09:23:32.555Z,10.21
2023-03-11T09:26:17.275Z,9.01
2023-03-11T09:28:50.518Z,8.08
2023-03-11T09:31:27.886Z,7.70
2023-03-11T09:34:01.459Z,8.38
2023-03-11T09:36:34.690Z,8.88
2023-03-11T09:39:07.615Z,9.19
2023-03-11T09:41:57.877Z,9.13
2023-03-11T09:44:38.700Z,8.63
2023-03-11T09:47:26.206Z,8.37
2023-03-11T09:50:16.816Z,8.51
2023-03-11T09:52:58.038Z,8.27
2023-03-11T09:55:44.008Z,7.90
2023-03-11T09:58:22.884Z,7.53
2023-03-11T10:00:56.329Z,7.35
2023-03-11T10:03:38.648Z,7.31
2023-03-11T10:06:24.115Z,7.25
2023-03-11T10:09:04.387Z,7.15
2023-03-11T10:12:04.236Z,7.17
2023-03-11T10:15:02.950Z,7.24
2023-03-11T10:17:54.443Z,7.33
2023-03-11T10:20:43.872Z,7.42
2023-03-11T10:23:27.469Z,7.58
2023-03-11T10:26:09.701Z,7.81
2023-03-11T10:28:57.665Z,8.13
2023-03-11T10:31:40.130Z,8.43
2023-03-11T10:34:28.487Z,8.57
2023-03-11T10:37:07.236Z,8.74
2023-03-11T10:39:51.689Z,8.96
2023-03-11T10:42:30.307Z,9.16
2023-03-11T10:45:15.400Z,9.17
2023-03-11T10:47:48.172Z,9.01
2023-03-11T10:50:21.898Z,8.90
2023-03-11T10:53:10.066Z,8.82
2023-03-11T10:55:54.722Z,8.51
2023-03-11T10:58:28.756Z,8.23
2023-03-11T11:01:15.625Z,8.00
2023-03-11T11:03:52.141Z,7.68
2023-03-11T11:06:31.580Z,7.35
2023-03-11T11:09:22.063Z,7.13
2023-03-11T11:12:13.394Z,7.08
2023-03-11T11:14:51.404Z,7.14
2023-03-11T11:17:31.571Z,7.26
2023-03-11T11:20:17.746Z,7.30
2023-03-11T11:22:56.480Z,7.30
2023-03-11T11:25:32.069Z,7.31
2023-03-11T11:28:17.545Z,7.25
2023-03-11T11:30:58.255Z,7.27
2023-03-11T11:33:33.790Z,7.25
2023-03-11T11:36:19.660Z,7.18
2023-03-11T11:38:56.693Z,7.14
2023-03-11T11:41:30.881Z,7.16
2023-03-11T11:44:14.303Z,7.19
2023-03-11T11:46:52.621Z,7.13
2023-03-11T11:49:30.580Z,6.98
2023-03-11T11:52:19.418Z,6.85
2023-03-11T11:55:05.309Z,6.89
2023-03-11T11:57:38.395Z,6.91
2023-03-11T12:00:25.508Z,6.85
2023-03-11T12:03:18.315Z,6.77
2023-03-11T12:05:58.507Z,6.67
2023-03-11T12:08:41.302Z,6.54
2023-03-11T12:11:20.458Z,6.38
2023-03-11T12:14:03.378Z,6.24
2023-03-11T12:16:47.800Z,6.08
2023-03-11T12:19:27.741Z,6.02
2023-03-11T12:22:36.392Z,6.07
2023-03-11T12:25:42.985Z,6.25
2023-03-11T12:28:25.372Z,6.48
2023-03-11T12:31:01.611Z,6.75
2023-03-11T12:33:38.528Z,7.10
2023-03-11T12:36:27.280Z,7.35
2023-03-11T12:39:01.655Z,7.33
2023-03-11T12:41:40.197Z,7.28
2023-03-11T12:44:32.755Z,7.11
2023-03-11T12:47:20.668Z,6.89
2023-03-11T12:49:57.457Z,6.64
2023-03-11T12:52:52.682Z,6.45
2023-03-11T12:55:34.902Z,6.23
2023-03-11T12:58:39.157Z,6.05
2023-03-11T13:01:33.370Z,5.86
2023-03-11T13:04:28.150Z,5.74
2023-03-11T13:07:45.113Z,5.66
2023-03-11T13:10:22.160Z,5.54
2023-03-11T13:12:57.811Z,5.49
2023-03-11T13:15:37.192Z,5.44
2023-03-11T13:18:24.720Z,5.39
2023-03-11T13:20:59.339Z,5.37
2023-03-11T13:23:37.132Z,5.38
2023-03-11T13:26:44.757Z,5.93
2023-03-11T13:29:59.312Z,7.03
2023-03-11T13:33:15.657Z,8.02
2023-03-11T13:36:00.620Z,8.62
2023-03-11T13:39:13.089Z,8.90
2023-03-11T13:41:47.700Z,8.99
2023-03-11T13:44:31.760Z,8.66
2023-03-11T13:47:11.229Z,7.38
2023-03-11T13:49:47.412Z,6.24
2023-03-11T13:52:28.776Z,5.78
2023-03-11T13:55:07.768Z,6.60
2023-03-11T13:57:41.169Z,7.32
2023-03-11T14:00:24.214Z,7.72
2023-03-11T14:03:01.209Z,7.97
2023-03-11T14:06:01.766Z,8.15
2023-03-11T14:08:53.784Z,8.31
2023-03-11T14:11:49.180Z,8.34
2023-03-11T14:14:41.966Z,8.40
2023-03-11T14:17:35.099Z,8.32
2023-03-11T14:20:31.959Z,8.26
2023-03-11T14:23:27.504Z,8.34
2023-03-11T14:26:16.493Z,8.37
2023-03-11T14:28:52.472Z,8.28
2023-03-11T14:31:38.437Z,8.13
2023-03-11T14:34:19.142Z,7.98
2023-03-11T14:36:57.174Z,7.91
2023-03-11T14:39:35.052Z,7.91
2023-03-11T14:42:26.247Z,7.82
2023-03-11T14:45:16.718Z,7.75
2023-03-11T14:47:58.054Z,7.74
2023-03-11T14:50:35.142Z,7.64
2023-03-11T14:53:15.972Z,7.61
2023-03-11T14:55:56.019Z,7.54
2023-03-11T14:58:35.903Z,7.57
2023-03-11T15:01:15.641Z,7.55
2023-03-11T15:03:53.443Z,7.46
2023-03-11T15:06:30.299Z,7.42
2023-03-11T15:09:07.990Z,7.36
2023-03-11T15:11:55.660Z,7.31
2023-03-11T15:14:33.670Z,7.27
2023-03-11T15:17:33.793Z,7.24
2023-03-11T15:20:24.104Z,7.19
2023-03-11T15:23:02.091Z,7.05
2023-03-11T15:25:50.399Z,7.07
2023-03-11T15:28:29.943Z,7.09
2023-03-11T15:31:31.833Z,7.06
2023-03-11T15:34:27.705Z,7.02
2023-03-11T15:37:26.677Z,7.02
2023-03-11T15:40:19.232Z,7.22
2023-03-11T15:43:21.505Z,7.12
2023-03-11T15:45:55.511Z,7.16
2023-03-11T15:48:40.582Z,7.09
2023-03-11T15:51:22.475Z,7.02
2023-03-11T15:54:04.321Z,6.94
2023-03-11T15:56:37.365Z,7.05
2023-03-11T15:59:16.571Z,7.11
2023-03-11T16:01:49.448Z,7.16
2023-03-11T16:04:25.277Z,7.18
2023-03-11T16:07:07.580Z,7.08
2023-03-11T16:09:44.879Z,6.92
2023-03-11T16:12:22.781Z,6.83
2023-03-11T16:14:55.718Z,6.71
2023-03-11T16:17:48.334Z,6.68
2023-03-11T16:20:26.814Z,6.58
2023-03-11T16:23:01.976Z,6.54
2023-03-11T16:25:39.382Z,6.43
2023-03-11T16:28:32.235Z,6.59
2023-03-11T16:31:28.447Z,6.56
2023-03-11T16:34:03.749Z,6.46
2023-03-11T16:36:40.161Z,6.39
2023-03-11T16:39:15.832Z,6.36
2023-03-11T16:41:50.030Z,6.29
2023-03-11T16:44:26.159Z,6.21
2023-03-11T16:47:02.008Z,6.24
2023-03-11T16:49:34.768Z,6.32
2023-03-11T16:52:08.351Z,6.41
2023-03-11T16:54:41.320Z,6.43
2023-03-11T16:57:14.718Z,6.35
2023-03-11T16:59:59.424Z,6.37
2023-03-11T17:02:35.569Z,6.35
2023-03-11T17:05:10.370Z,6.41
2023-03-11T17:07:43.525Z,6.37
2023-03-11T17:10:17.137Z,6.29
2023-03-11T17:13:00.175Z,6.17
2023-03-11T17:15:34.899Z,6.15
2023-03-11T17:18:18.808Z,6.23
2023-03-11T17:20:54.400Z,6.27
2023-03-11T17:23:31.797Z,6.29
2023-03-11T17:26:08.850Z,6.29
2023-03-11T17:28:44.621Z,6.20
2023-03-11T17:31:18.656Z,6.07
2023-03-11T17:33:53.090Z,5.98
2023-03-11T17:36:26.458Z,6.14
2023-03-11T17:39:02.416Z,6.04
2023-03-11T17:41:37.688Z,5.98
2023-03-11T17:44:11.232Z,5.99
2023-03-11T17:46:46.594Z,5.95
2023-03-11T17:49:24.552Z,5.99
2023-03-11T17:51:57.578Z,5.98
2023-03-11T17:54:30.375Z,5.99
2023-03-11T17:57:04.161Z,5.91
2023-03-11T17:59:40.876Z,5.99
2023-03-11T18:02:22.378Z,6.09
2023-03-11T18:04:55.384Z,6.25
2023-03-11T18:07:29.238Z,6.26
2023-03-11T18:10:01.890Z,6.25
2023-03-11T18:12:35.214Z,6.24
2023-03-11T18:15:19.311Z,6.14
2023-03-11T18:17:56.984Z,6.01
2023-03-11T18:20:32.772Z,6.02
2023-03-11T18:23:06.238Z,5.95
2023-03-11T18:25:41.449Z,5.90
2023-03-11T18:28:16.728Z,5.92
2023-03-11T18:30:55.428Z,5.94
2023-03-11T18:33:31.020Z,6.02
2023-03-11T18:36:14.283Z,6.05
2023-03-11T18:38:47.690Z,6.15
2023-03-11T18:41:22.951Z,6.21
2023-03-11T18:43:57.487Z,6.23
2023-03-11T18:46:32.616Z,6.19
2023-03-11T18:49:17.552Z,6.21
2023-03-11T18:51:50.166Z,6.36
2023-03-11T18:54:23.101Z,6.25
2023-03-11T18:56:56.001Z,6.13
2023-03-11T18:59:28.981Z,6.03
2023-03-11T19:02:01.764Z,5.99
2023-03-11T19:04:34.904Z,5.98
2023-03-11T19:07:08.314Z,5.91
2023-03-11T19:09:40.901Z,5.87
2023-03-11T19:12:13.543Z,5.85
2023-03-11T19:14:46.649Z,5.77
2023-03-11T19:17:22.473Z,5.66
2023-03-11T19:20:16.042Z,4.93
2023-03-11T19:22:49.084Z,4.27
2023-03-11T19:25:27.789Z,3.78
2023-03-11T19:28:04.294Z,3.15
2023-03-11T19:30:37.052Z,2.65
2023-03-11T19:33:10.149Z,2.51
2023-03-11T19:35:56.944Z,3.32
2023-03-11T19:38:32.495Z,4.02
2023-03-11T19:41:10.364Z,4.23
2023-03-11T19:43:45.670Z,3.89
2023-03-11T19:46:21.072Z,3.80
2023-03-11T19:48:56.725Z,3.21
2023-03-11T19:51:38.878Z,2.98
2023-03-11T19:54:39.809Z,3.53
2023-03-11T19:57:15.644Z,3.92
2023-03-11T19:59:51.429Z,4.42
2023-03-11T20:02:35.393Z,4.58
2023-03-11T20:05:12.309Z,4.47
2023-03-11T20:07:47.527Z,4.45
2023-03-11T20:10:23.844Z,4.48
2023-03-11T20:13:02.500Z,4.78
2023-03-11T20:15:35.469Z,5.03
2023-03-11T20:18:08.837Z,5.22
2023-03-11T20:20:43.425Z,5.30
2023-03-11T20:23:17.305Z,5.46
2023-03-11T20:25:50.095Z,5.45
2023-03-11T20:28:22.987Z,5.45
2023-03-11T20:30:55.759Z,5.41
2023-03-11T20:33:28.626Z,5.42
2023-03-11T20:36:08.585Z,5.49
2023-03-11T20:38:42.071Z,5.51
2023-03-11T20:41:14.790Z,5.16
2023-03-11T20:43:47.638Z,3.95
2023-03-11T20:46:20.740Z,2.76
2023-03-11T20:48:54.278Z,2.12
2023-03-11T20:51:26.970Z,2.85
2023-03-11T20:53:59.787Z,3.67
2023-03-11T20:56:32.500Z,4.17
2023-03-11T20:59:09.984Z,4.50
2023-03-11T21:01:47.816Z,4.66
2023-03-11T21:04:21.408Z,4.74
2023-03-11T21:06:55.489Z,4.92
2023-03-11T21:09:28.226Z,4.86
2023-03-11T21:12:02.361Z,5.04
2023-03-11T21:14:35.612Z,5.14
2023-03-11T21:17:08.541Z,5.31
2023-03-11T21:19:44.927Z,5.44
2023-03-11T21:22:28.951Z,5.25
2023-03-11T21:25:12.568Z,4.00
2023-03-11T21:27:47.993Z,2.81
2023-03-11T21:30:21.223Z,2.12
2023-03-11T21:32:56.828Z,2.50
2023-03-11T21:35:31.158Z,3.02
2023-03-11T21:38:06.973Z,3.37
2023-03-11T21:40:42.309Z,3.81
2023-03-11T21:43:17.495Z,4.01
2023-03-11T21:45:54.179Z,4.39
2023-03-11T21:48:26.909Z,4.90
2023-03-11T21:50:59.901Z,5.19
2023-03-11T21:53:34.040Z,5.16
2023-03-11T21:56:10.357Z,3.98
2023-03-11T21:58:43.528Z,2.79
2023-03-11T22:01:18.771Z,1.90
2023-03-11T22:03:51.939Z,1.39
2023-03-11T22:06:26.039Z,1.92
2023-03-11T22:08:59.177Z,2.65
2023-03-11T22:11:35.048Z,2.87
2023-03-11T22:14:07.872Z,3.17
2023-03-11T22:16:41.082Z,3.66
2023-03-11T22:19:16.976Z,3.81
2023-03-11T22:21:49.784Z,3.75
2023-03-11T22:24:22.885Z,3.98
2023-03-11T22:26:55.590Z,4.38
2023-03-11T22:29:30.449Z,4.73
2023-03-11T22:32:06.958Z,4.98
2023-03-11T22:34:42.357Z,4.82
2023-03-11T22:37:15.270Z,3.75
2023-03-11T22:39:59.866Z,2.55
2023-03-11T22:42:52.860Z,1.58
2023-03-11T22:45:25.605Z,1.20
2023-03-11T22:48:01.343Z,1.74
2023-03-11T22:50:40.746Z,2.38
2023-03-11T22:53:15.162Z,3.28
2023-03-11T22:55:48.200Z,3.62
2023-03-11T22:58:23.279Z,3.76
2023-03-11T23:00:58.205Z,3.84
2023-03-11T23:03:31.196Z,4.05
2023-03-11T23:06:09.739Z,4.22
2023-03-11T23:08:42.652Z,4.24
2023-03-11T23:11:18.660Z,4.36
2023-03-11T23:14:11.611Z,4.66
2023-03-11T23:16:47.197Z,4.61
2023-03-11T23:19:22.189Z,4.78
2023-03-11T23:21:59.501Z,5.26
2023-03-11T23:24:43.434Z,5.53
2023-03-11T23:27:19.531Z,4.83
2023-03-11T23:29:52.822Z,3.46
2023-03-11T23:32:26.726Z,2.40
2023-03-11T23:34:59.646Z,1.89
2023-03-11T23:37:34.510Z,2.76
2023-03-11T23:40:09.575Z,3.64
2023-03-11T23:42:44.950Z,4.34
2023-03-11T23:45:26.838Z,4.84
2023-03-11T23:47:59.559Z,5.05
2023-03-11T23:50:47.435Z,5.01
2023-03-11T23:53:23.242Z,4.89
2023-03-11T23:55:56.395Z,4.62
2023-03-11T23:58:29.753Z,4.74
